Time;durP1;ratioP1;P1;durP2;ratioP2;P2;SDS_P1;SDS_P2;PMS_P1;PMS_P2;Temp;Humidity;BMP_temperature;BMP_pressure;BME280_temperature;BME280_humidity;BME280_pressure;Samples;Min_cycle;Max_cycle;Signal;HPM_P1;HPM_P2
2022/09/24 00:01:25;;;;;;;13.53;9.20;;;;;;;13.05;83.25;100045.88;5078454;28;20503;-66
2022/09/24 00:03:53;;;;;;;10.03;8.87;;;;;;;13.10;83.29;100054.28;5078756;28;20524;-66
2022/09/24 00:06:20;;;;;;;10.13;9.03;;;;;;;13.18;83.30;100056.19;5078033;28;20733;-66
2022/09/24 00:08:48;;;;;;;11.87;9.57;;;;;;;13.23;83.00;100053.00;5077286;28;20466;-66
2022/09/24 00:11:19;;;;;;;15.00;9.67;;;;;;;13.26;83.26;100048.16;5078154;28;20482;-66
2022/09/24 00:13:46;;;;;;;11.90;10.03;;;;;;;13.29;82.73;100047.81;5060496;28;20467;-66
2022/09/24 00:16:15;;;;;;;11.70;9.80;;;;;;;13.31;82.89;100039.59;5075377;28;20475;-66
2022/09/24 00:18:42;;;;;;;10.90;9.53;;;;;;;13.30;82.25;100041.44;5075192;28;20464;-66
2022/09/24 00:21:14;;;;;;;12.53;9.80;;;;;;;13.35;81.41;100041.84;5076349;28;20488;-65
2022/09/24 00:23:41;;;;;;;10.87;9.77;;;;;;;13.41;80.55;100037.66;5081090;28;20472;-66
2022/09/24 00:28:56;;;;;;;12.00;9.07;;;;;;;13.47;79.17;100039.69;5082788;28;20740;-66
2022/09/24 00:31:23;;;;;;;13.30;8.50;;;;;;;13.45;79.28;100038.16;5081885;28;20481;-66
2022/09/24 00:33:51;;;;;;;9.10;8.20;;;;;;;13.11;81.56;100042.56;5082095;28;20513;-67
2022/09/24 00:36:18;;;;;;;10.10;9.10;;;;;;;13.05;82.60;100040.50;5082643;28;20476;-66
2022/09/24 00:38:44;;;;;;;9.93;8.90;;;;;;;13.12;83.45;100044.25;5102733;28;20940;-66
2022/09/24 00:41:11;;;;;;;9.50;7.43;;;;;;;13.13;84.01;100035.19;5087740;28;20499;-66
2022/09/24 00:43:38;;;;;;;12.30;9.07;;;;;;;13.18;84.34;100037.38;5082181;28;20468;-66
2022/09/24 00:46:10;;;;;;;10.17;8.70;;;;;;;13.22;84.11;100040.59;5080063;28;20476;-66
2022/09/24 00:48:39;;;;;;;9.33;8.40;;;;;;;13.21;84.31;100023.66;5081881;28;20464;-66
2022/09/24 00:51:07;;;;;;;11.43;9.03;;;;;;;13.21;83.84;100025.47;5075206;28;20464;-67
2022/09/24 00:53:34;;;;;;;10.70;8.77;;;;;;;13.18;84.45;100022.13;5081693;28;20480;-66
2022/09/24 00:56:02;;;;;;;10.47;8.93;;;;;;;13.14;84.82;100031.50;5070039;28;20505;-66
2022/09/24 00:58:30;;;;;;;9.00;8.10;;;;;;;13.31;84.65;100023.50;5071123;28;20482;-66
2022/09/24 01:00:59;;;;;;;9.60;8.60;;;;;;;13.37;84.70;100029.06;5081313;28;20919;-66
2022/09/24 01:03:27;;;;;;;11.57;8.47;;;;;;;13.34;84.68;100023.19;5081306;28;20718;-66
2022/09/24 01:05:54;;;;;;;9.57;8.60;;;;;;;13.26;84.94;100028.50;5071851;28;20506;-66
2022/09/24 01:08:20;;;;;;;11.20;8.47;;;;;;;13.23;84.90;100020.78;5070392;28;20470;-66
2022/09/24 01:11:04;;;;;;;9.93;8.93;;;;;;;13.24;84.90;100017.09;5084975;28;20485;-66
2022/09/24 01:13:39;;;;;;;15.17;10.43;;;;;;;13.33;84.15;100002.72;5069213;28;20509;-66
2022/09/24 01:16:10;;;;;;;14.00;9.27;;;;;;;13.25;84.44;100018.78;5081421;28;20988;-66
2022/09/24 01:18:42;;;;;;;11.57;8.90;;;;;;;13.14;84.83;100011.84;5080841;28;20505;-65
2022/09/24 01:21:28;;;;;;;13.60;9.30;;;;;;;13.10;84.81;100023.94;5082521;28;21046;-66
2022/09/24 01:24:16;;;;;;;10.23;9.23;;;;;;;13.09;85.13;100017.72;5101751;28;20488;-66
2022/09/24 01:26:55;;;;;;;9.83;8.83;;;;;;;13.07;85.04;100014.38;5100078;28;20497;-66
2022/09/24 01:29:44;;;;;;;11.80;9.43;;;;;;;13.04;85.60;100020.06;5102197;28;20434;-66
2022/09/24 01:32:17;;;;;;;10.50;9.20;;;;;;;13.05;85.94;100020.91;5081422;28;20502;-65
2022/09/24 01:34:47;;;;;;;9.57;8.50;;;;;;;13.03;86.40;100015.69;5081173;28;20520;-65
2022/09/24 01:37:15;;;;;;;9.83;8.83;;;;;;;13.06;86.64;100017.22;5073267;28;20487;-65
2022/09/24 01:39:44;;;;;;;10.47;9.40;;;;;;;13.04;87.08;100014.69;5080278;28;20511;-67
2022/09/24 01:42:12;;;;;;;11.30;9.23;;;;;;;13.03;87.06;100013.00;5080413;28;20479;-67
2022/09/24 01:44:43;;;;;;;10.73;9.30;;;;;;;12.99;87.28;100022.38;5080892;28;20641;-67
2022/09/24 01:47:11;;;;;;;10.60;9.57;;;;;;;12.93;87.48;100014.97;5064679;28;20558;-66
2022/09/24 01:49:38;;;;;;;11.50;9.93;;;;;;;12.91;87.48;100015.13;5080659;28;20437;-67
2022/09/24 01:52:09;;;;;;;12.50;9.30;;;;;;;12.88;87.51;100009.25;5090239;28;20524;-66
2022/09/24 01:54:37;;;;;;;10.77;9.60;;;;;;;12.83;87.59;100004.38;5077204;28;20842;-66
2022/09/24 01:57:09;;;;;;;11.83;9.83;;;;;;;12.82;87.87;100008.91;5080485;28;20568;-67
2022/09/24 01:59:40;;;;;;;10.37;9.37;;;;;;;12.80;87.77;100005.53;5082821;28;20470;-66
2022/09/24 02:02:10;;;;;;;13.47;9.97;;;;;;;12.77;87.91;100002.34;5089574;28;20510;-66
2022/09/24 02:04:40;;;;;;;11.60;10.50;;;;;;;12.72;88.08;100001.97;5075569;28;20496;-67
2022/09/24 02:07:11;;;;;;;11.50;9.70;;;;;;;12.73;87.76;100001.81;5068204;28;20484;-66
2022/09/24 02:09:39;;;;;;;10.53;9.43;;;;;;;12.70;88.09;100001.31;5076777;28;20445;-67
2022/09/24 02:12:10;;;;;;;12.50;10.27;;;;;;;12.66;88.22;99981.19;5080229;28;20512;-67
2022/09/24 02:14:42;;;;;;;14.33;10.77;;;;;;;12.63;88.37;99996.56;5074241;28;20478;-66
2022/09/24 02:17:10;;;;;;;14.63;10.40;;;;;;;12.62;88.18;99996.75;5079592;28;20866;-66
2022/09/24 02:19:38;;;;;;;12.73;9.70;;;;;;;12.60;88.59;100001.41;5079784;28;20503;-66
2022/09/24 02:22:06;;;;;;;12.00;10.63;;;;;;;12.57;88.91;99994.53;5079978;28;20476;-66
2022/09/24 02:24:38;;;;;;;15.60;11.00;;;;;;;12.54;89.29;99989.50;5077708;28;20481;-66
2022/09/24 02:27:05;;;;;;;12.53;11.23;;;;;;;12.52;89.36;100007.59;5079739;28;20482;-67
2022/09/24 02:29:31;;;;;;;12.00;10.80;;;;;;;12.46;89.52;100000.16;5080151;28;20473;-66
2022/09/24 02:31:59;;;;;;;13.30;11.93;;;;;;;12.41;89.50;99994.44;5079476;28;20507;-67
2022/09/24 02:34:30;;;;;;;12.70;11.40;;;;;;;12.42;89.22;99994.28;5079817;28;20501;-66
2022/09/24 02:36:59;;;;;;;12.90;11.57;;;;;;;12.40;89.08;99990.09;5079331;28;20473;-68
2022/09/24 02:39:26;;;;;;;11.33;10.23;;;;;;;12.47;89.06;99990.31;5080090;28;20838;-67
2022/09/24 02:41:53;;;;;;;12.60;10.80;;;;;;;12.42;88.63;99988.91;5066549;28;20508;-66
2022/09/24 02:44:21;;;;;;;13.10;10.80;;;;;;;12.33;89.07;99989.88;5063206;28;20791;-67
2022/09/24 02:46:49;;;;;;;12.10;10.43;;;;;;;12.42;88.99;99978.19;5059929;28;21034;-66
2022/09/24 02:49:17;;;;;;;14.03;10.67;;;;;;;12.48;88.73;99981.25;5059281;28;20472;-66
2022/09/24 02:51:45;;;;;;;13.90;11.73;;;;;;;12.41;88.46;99984.56;5079842;28;20505;-67
2022/09/24 02:54:12;;;;;;;16.00;13.00;;;;;;;12.30;88.88;99986.69;5079767;28;20475;-66
2022/09/24 02:56:39;;;;;;;14.80;12.60;;;;;;;12.30;88.99;99984.81;5078722;28;20568;-67
2022/09/24 02:59:06;;;;;;;14.03;12.60;;;;;;;12.31;89.24;99978.47;5080137;28;20813;-66
2022/09/24 03:01:33;;;;;;;13.30;12.00;;;;;;;12.29;89.00;99972.44;5071955;28;20487;-66
2022/09/24 03:04:00;;;;;;;16.67;14.00;;;;;;;12.28;88.90;99965.38;5079646;28;20466;-66
2022/09/24 03:06:28;;;;;;;16.80;13.90;;;;;;;12.30;89.17;99962.56;5086695;28;20484;-66
2022/09/24 03:08:55;;;;;;;16.70;13.57;;;;;;;12.26;88.76;99964.72;5081556;28;20444;-66
2022/09/24 03:11:22;;;;;;;15.57;13.23;;;;;;;12.31;88.95;99970.44;5078598;28;20470;-66
2022/09/24 03:13:50;;;;;;;14.90;13.30;;;;;;;12.30;88.83;99966.06;5078813;28;20482;-67
2022/09/24 03:16:17;;;;;;;17.00;14.30;;;;;;;12.33;88.91;99962.25;5078940;28;21028;-67
2022/09/24 03:18:44;;;;;;;15.50;13.10;;;;;;;12.35;88.67;99977.16;5072379;28;20442;-66
2022/09/24 03:21:12;;;;;;;15.83;14.13;;;;;;;12.34;88.85;99975.50;5067443;28;20496;-67
2022/09/24 03:23:40;;;;;;;14.60;13.13;;;;;;;12.37;88.71;99969.78;5079409;28;20504;-67
2022/09/24 03:26:07;;;;;;;15.17;13.57;;;;;;;12.41;88.68;99970.31;5074141;28;20491;-67
2022/09/24 03:28:33;;;;;;;15.67;14.13;;;;;;;12.42;88.61;99975.50;5072974;28;20471;-67
2022/09/24 03:30:59;;;;;;;16.47;14.27;;;;;;;12.45;88.77;99974.38;5078618;28;20505;-67
2022/09/24 03:33:26;;;;;;;15.47;13.50;;;;;;;12.47;89.02;99968.84;5079221;28;20436;-67
2022/09/24 03:35:55;;;;;;;15.47;13.87;;;;;;;12.46;89.11;99972.53;5078307;28;20318;-67
2022/09/24 03:38:22;;;;;;;15.77;12.07;;;;;;;12.50;88.95;99965.81;5075455;28;20465;-66
2022/09/24 03:40:50;;;;;;;14.83;13.10;;;;;;;12.52;89.20;99963.84;5057612;28;20497;-66
2022/09/24 03:43:16;;;;;;;14.33;12.40;;;;;;;12.57;89.13;99965.03;5072540;28;20904;-67
2022/09/24 03:45:43;;;;;;;15.60;13.77;;;;;;;12.56;89.26;99965.19;5077530;28;20487;-67
2022/09/24 03:48:13;;;;;;;13.77;12.43;;;;;;;12.48;89.13;99960.66;5077085;28;20519;-67
2022/09/24 03:50:39;;;;;;;13.93;12.43;;;;;;;12.52;89.38;99955.81;5077195;28;20495;-67
2022/09/24 03:53:06;;;;;;;16.30;13.10;;;;;;;12.56;89.17;99962.53;5090757;28;20471;-67
2022/09/24 03:55:32;;;;;;;13.20;11.90;;;;;;;12.49;89.24;99954.28;5077167;28;20468;-67
2022/09/24 03:58:01;;;;;;;17.50;13.90;;;;;;;12.52;89.21;99958.50;5078898;28;20532;-67
2022/09/24 04:00:28;;;;;;;15.20;12.33;;;;;;;12.51;89.56;99954.94;5078416;28;20536;-67
2022/09/24 04:02:54;;;;;;;12.70;11.50;;;;;;;12.55;89.25;99942.06;5078852;28;20461;-66
2022/09/24 04:05:21;;;;;;;13.90;12.37;;;;;;;12.54;89.41;99943.91;5080105;28;20879;-66
2022/09/24 04:07:48;;;;;;;13.00;11.70;;;;;;;12.49;89.15;99951.59;5062975;28;20512;-65
2022/09/24 04:10:14;;;;;;;13.90;11.30;;;;;;;12.59;89.17;99935.38;5077985;28;20509;-66
2022/09/24 04:12:42;;;;;;;13.30;12.00;;;;;;;12.54;89.11;99937.72;5078603;28;20487;-64
2022/09/24 04:15:11;;;;;;;13.30;12.00;;;;;;;12.63;88.73;99936.72;5081412;28;20455;-65
2022/09/24 04:17:37;;;;;;;14.57;13.10;;;;;;;12.62;88.29;99940.44;5078542;28;20446;-65
2022/09/24 04:20:04;;;;;;;14.67;13.23;;;;;;;12.49;89.15;99943.53;5077075;28;20503;-65
2022/09/24 04:22:31;;;;;;;14.57;13.07;;;;;;;12.53;89.21;99938.69;5078179;28;20497;-65
2022/09/24 04:24:57;;;;;;;13.40;11.90;;;;;;;12.49;89.30;99948.06;5077993;28;20449;-66
2022/09/24 04:27:24;;;;;;;16.17;13.50;;;;;;;12.44;89.51;99943.19;5079131;28;20571;-65
2022/09/24 04:29:53;;;;;;;15.90;12.63;;;;;;;12.40;90.17;99936.47;5079259;28;20464;-65
2022/09/24 04:32:21;;;;;;;13.87;12.47;;;;;;;12.69;89.25;99933.41;5078861;28;20484;-65
2022/09/24 04:34:48;;;;;;;13.27;11.97;;;;;;;12.68;89.04;99928.22;5076994;28;20453;-66
2022/09/24 04:37:15;;;;;;;13.43;11.93;;;;;;;12.61;89.37;99928.84;5072630;28;20487;-66
2022/09/24 04:39:41;;;;;;;14.60;13.07;;;;;;;12.52;89.44;99932.50;5067877;28;20483;-65
2022/09/24 04:42:08;;;;;;;15.00;13.40;;;;;;;12.53;89.68;99928.81;5078440;28;20932;-65
2022/09/24 04:44:34;;;;;;;15.97;14.37;;;;;;;12.51;89.62;99932.66;5077516;28;20516;-65
2022/09/24 04:47:02;;;;;;;17.70;14.07;;;;;;;12.45;90.01;99928.78;5067223;28;20511;-66
2022/09/24 04:49:30;;;;;;;16.40;14.70;;;;;;;12.45;90.23;99934.16;5078623;28;20508;-67
2022/09/24 04:51:57;;;;;;;18.40;13.87;;;;;;;12.44;90.27;99924.41;5076532;28;20508;-65
2022/09/24 04:54:25;;;;;;;17.23;13.90;;;;;;;12.44;90.38;99933.28;5077750;28;20463;-66
2022/09/24 04:56:51;;;;;;;16.43;14.67;;;;;;;12.49;90.14;99930.13;5077300;28;20509;-67
2022/09/24 04:59:18;;;;;;;20.00;15.67;;;;;;;12.48;89.88;99933.84;5078537;28;20475;-65
2022/09/24 05:01:46;;;;;;;17.70;15.80;;;;;;;12.42;90.09;99932.63;5077733;28;20498;-65
2022/09/24 05:04:12;;;;;;;18.00;16.13;;;;;;;12.37;90.63;99937.63;5081270;28;20468;-65
2022/09/24 05:06:40;;;;;;;17.27;15.47;;;;;;;12.35;90.49;99938.78;5077561;28;20499;-65
2022/09/24 05:09:07;;;;;;;16.93;15.13;;;;;;;12.34;90.76;99943.31;5083884;28;20543;-66
2022/09/24 05:11:34;;;;;;;20.47;16.83;;;;;;;12.33;91.00;99943.47;5080893;28;20497;-66
2022/09/24 05:14:00;;;;;;;22.67;15.93;;;;;;;12.33;91.24;99938.94;5080972;28;20452;-66
2022/09/24 05:16:27;;;;;;;18.77;16.87;;;;;;;12.39;91.13;99948.19;5081113;28;20503;-66
2022/09/24 05:18:54;;;;;;;18.43;16.50;;;;;;;12.34;91.10;99951.38;5080367;28;20455;-67
2022/09/24 05:21:21;;;;;;;19.63;16.77;;;;;;;12.36;91.22;99945.81;5081032;28;20471;-68
2022/09/24 05:23:49;;;;;;;19.90;17.30;;;;;;;12.39;91.13;99954.41;5081334;28;20945;-67
2022/09/24 05:29:00;;;;;;;19.60;16.80;;;;;;;12.43;91.03;99957.59;5082017;28;20416;-66
2022/09/24 05:31:26;;;;;;;19.97;17.50;;;;;;;12.46;91.35;99951.91;5090862;28;20521;-67
2022/09/24 05:33:53;;;;;;;20.03;17.77;;;;;;;12.48;91.55;99959.78;5101549;28;20483;-65
2022/09/24 05:36:19;;;;;;;19.70;17.17;;;;;;;12.51;91.66;99956.78;5101305;28;20575;-66
2022/09/24 05:38:46;;;;;;;20.80;18.03;;;;;;;12.55;91.29;99960.81;5101805;28;20440;-67
2022/09/24 05:41:14;;;;;;;19.30;17.30;;;;;;;12.56;91.51;99962.53;5100544;28;20498;-66
2022/09/24 05:43:41;;;;;;;19.70;17.03;;;;;;;12.58;91.50;99958.66;5101254;28;20517;-65
2022/09/24 05:46:07;;;;;;;19.93;17.90;;;;;;;12.60;91.51;99964.72;5100917;28;20559;-66
2022/09/24 05:48:34;;;;;;;21.20;17.43;;;;;;;12.60;91.64;99961.19;5101685;28;20436;-66
2022/09/24 05:51:01;;;;;;;20.60;18.50;;;;;;;12.57;91.88;99975.78;5100993;28;20554;-66
2022/09/24 05:53:28;;;;;;;22.53;20.23;;;;;;;12.56;92.26;99967.88;5097157;28;20471;-66
2022/09/24 05:55:54;;;;;;;22.60;20.23;;;;;;;12.52;91.76;99974.56;5079321;28;20492;-66
2022/09/24 05:58:22;;;;;;;31.90;24.13;;;;;;;12.58;91.93;99976.59;5080062;28;20821;-66
2022/09/24 06:00:49;;;;;;;27.93;23.83;;;;;;;12.53;90.56;99984.28;5080273;28;20480;-67
2022/09/24 06:03:17;;;;;;;24.30;21.73;;;;;;;12.46;89.17;99975.19;5080590;28;20482;-66
2022/09/24 06:05:46;;;;;;;26.67;22.47;;;;;;;12.35;89.23;99984.38;5080364;28;20499;-65
2022/09/24 06:08:14;;;;;;;25.67;21.17;;;;;;;12.21;89.15;99980.44;5081070;28;20459;-66
2022/09/24 06:10:41;;;;;;;22.03;19.73;;;;;;;12.37;88.71;99985.03;5060976;28;20492;-68
2022/09/24 06:13:08;;;;;;;23.67;21.07;;;;;;;12.31;89.03;99980.31;5060135;28;20452;-67
2022/09/24 06:15:36;;;;;;;23.03;20.33;;;;;;;12.24;89.09;99986.31;5071998;28;20497;-71
2022/09/24 06:18:02;;;;;;;23.00;20.73;;;;;;;12.18;89.65;99981.56;5075213;28;20540;-69
2022/09/24 06:20:29;;;;;;;24.10;21.50;;;;;;;12.25;89.48;99973.75;5080189;28;20494;-69
2022/09/24 06:22:56;;;;;;;24.90;20.60;;;;;;;12.28;89.54;99986.84;5080361;28;20996;-70
2022/09/24 06:25:23;;;;;;;20.17;18.17;;;;;;;12.40;89.42;99982.06;5079368;28;20455;-70
2022/09/24 06:27:59;;;;;;;21.47;19.17;;;;;;;12.49;89.15;99981.09;5080246;28;20476;-69
2022/09/24 06:30:27;;;;;;;21.37;19.07;;;;;;;12.52;89.03;99987.97;5080016;28;20512;-68
2022/09/24 06:32:55;;;;;;;22.03;19.37;;;;;;;12.54;88.84;99988.66;5079672;28;20535;-70
2022/09/24 06:35:22;;;;;;;23.50;19.77;;;;;;;12.55;88.80;99976.91;5079983;28;20859;-68
2022/09/24 06:37:49;;;;;;;25.53;20.17;;;;;;;12.55;89.23;99982.28;5080765;28;20472;-70
2022/09/24 06:40:15;;;;;;;22.13;19.90;;;;;;;12.54;89.31;99980.63;5079467;28;20520;-71
2022/09/24 06:42:42;;;;;;;21.83;19.73;;;;;;;12.60;89.29;99986.19;5080205;28;20503;-70
2022/09/24 06:45:10;;;;;;;22.27;19.97;;;;;;;12.70;89.23;99990.56;5079049;28;20578;-71
2022/09/24 06:47:37;;;;;;;23.30;20.90;;;;;;;12.62;88.82;99988.72;5080305;28;20486;-70
2022/09/24 06:50:07;;;;;;;30.57;20.97;;;;;;;12.81;88.53;99984.91;5092530;28;21632;-70
2022/09/24 06:52:34;;;;;;;22.90;20.47;;;;;;;12.89;88.26;99984.13;5080391;28;20478;-70
2022/09/24 06:55:00;;;;;;;23.60;21.10;;;;;;;12.88;87.68;99985.09;5078100;28;20882;-71
2022/09/24 06:57:27;;;;;;;22.60;20.30;;;;;;;12.90;87.98;99983.13;5060170;28;20507;-71
2022/09/24 06:59:54;;;;;;;24.77;21.33;;;;;;;12.90;88.63;99975.06;5060816;28;20436;-71
2022/09/24 07:02:20;;;;;;;25.37;21.27;;;;;;;13.14;87.22;99982.34;5059842;28;20550;-71
2022/09/24 07:04:47;;;;;;;25.63;21.80;;;;;;;13.07;87.49;99976.81;5080062;28;20459;-71
2022/09/24 07:07:31;;;;;;;24.70;21.27;;;;;;;13.16;87.45;99983.03;5079331;28;20476;-71
2022/09/24 07:09:58;;;;;;;22.97;20.10;;;;;;;13.10;87.53;99983.69;5079673;28;21052;-72
2022/09/24 07:12:25;;;;;;;22.13;20.00;;;;;;;13.15;87.60;99979.50;5079692;28;20491;-71
2022/09/24 07:14:52;;;;;;;23.47;20.93;;;;;;;13.07;87.06;99979.50;5079652;28;20770;-71
2022/09/24 07:17:18;;;;;;;22.80;20.20;;;;;;;13.26;87.10;99980.19;5081012;28;20529;-70
2022/09/24 07:19:45;;;;;;;23.17;20.60;;;;;;;13.05;88.59;99986.84;5084543;28;20450;-71
2022/09/24 07:22:12;;;;;;;24.60;22.00;;;;;;;13.30;87.95;99978.88;5079026;28;20504;-72
2022/09/24 07:24:40;;;;;;;25.50;22.27;;;;;;;13.39;87.22;99983.28;5079253;28;20443;-71
2022/09/24 07:27:07;;;;;;;26.07;21.63;;;;;;;13.11;87.80;99982.69;5078573;28;20486;-68
2022/09/24 07:29:34;;;;;;;27.60;22.93;;;;;;;13.14;88.38;99987.69;5079462;28;20975;-72
2022/09/24 07:32:02;;;;;;;24.17;21.37;;;;;;;13.22;88.76;99984.22;5079156;28;20537;-71
2022/09/24 07:34:28;;;;;;;26.17;22.57;;;;;;;13.14;88.79;99996.63;5079839;28;20547;-71
2022/09/24 07:36:55;;;;;;;24.60;21.97;;;;;;;13.25;89.10;99989.25;5078764;28;20492;-71
2022/09/24 07:39:22;;;;;;;24.60;22.10;;;;;;;13.26;89.56;99985.56;5079953;28;20919;-72
2022/09/24 07:41:51;;;;;;;27.00;23.00;;;;;;;13.25;89.43;99983.91;5078625;28;20476;-70
2022/09/24 07:44:19;;;;;;;26.17;23.47;;;;;;;13.33;89.51;99986.59;5080005;28;20482;-72
2022/09/24 07:46:47;;;;;;;26.93;23.17;;;;;;;13.34;89.13;99983.75;5074122;28;21074;-71
2022/09/24 07:49:13;;;;;;;25.77;22.30;;;;;;;13.30;89.52;99986.94;5074832;28;20445;-72
2022/09/24 07:51:40;;;;;;;25.97;22.10;;;;;;;13.32;89.15;99991.13;5076521;28;20568;-72
2022/09/24 07:54:07;;;;;;;27.03;22.20;;;;;;;13.51;89.37;99991.84;5077645;28;20450;-74
2022/09/24 07:56:33;;;;;;;26.53;22.60;;;;;;;13.63;88.55;99982.47;5076150;28;20522;-73
2022/09/24 07:59:01;;;;;;;26.40;22.57;;;;;;;13.65;88.44;99993.88;5062759;28;20459;-73
2022/09/24 08:01:28;;;;;;;26.23;23.40;;;;;;;13.61;88.06;99991.69;5077198;28;20537;-73
2022/09/24 08:03:55;;;;;;;26.90;22.23;;;;;;;13.59;88.08;99991.84;5076542;28;21097;-66
2022/09/24 08:06:22;;;;;;;23.60;21.10;;;;;;;13.63;88.54;99979.78;5077047;28;20498;-66
2022/09/24 08:08:49;;;;;;;25.47;22.40;;;;;;;13.77;87.93;99986.31;5077111;28;21208;-67
2022/09/24 08:11:16;;;;;;;28.23;23.97;;;;;;;13.75;88.53;99982.97;5067948;28;20501;-66
2022/09/24 08:13:43;;;;;;;27.10;24.20;;;;;;;13.70;89.19;99998.75;5004934;28;20446;-66
2022/09/24 08:16:12;;;;;;;26.77;23.60;;;;;;;13.93;88.96;100004.28;5084016;28;20559;-66
2022/09/24 08:18:39;;;;;;;32.60;24.93;;;;;;;13.96;88.10;99995.91;5089884;28;20474;-66
2022/09/24 08:21:10;;;;;;;30.90;25.17;;;;;;;13.99;88.25;100005.47;5086019;28;20479;-66
2022/09/24 08:23:37;;;;;;;28.80;23.70;;;;;;;13.96;88.59;100003.97;5084840;28;20510;-66
2022/09/24 08:26:04;;;;;;;29.07;25.70;;;;;;;14.06;88.53;99999.25;5084482;28;20483;-66
2022/09/24 08:28:31;;;;;;;30.87;25.23;;;;;;;14.25;88.91;100007.94;5080523;28;20478;-67
2022/09/24 08:30:59;;;;;;;27.97;24.63;;;;;;;14.11;88.53;100007.66;5072694;28;20489;-65
2022/09/24 08:33:27;;;;;;;29.53;24.80;;;;;;;14.30;88.71;100000.22;5077312;28;20450;-67
2022/09/24 08:35:54;;;;;;;28.87;25.03;;;;;;;14.45;88.08;100011.13;5078415;28;20869;-67
2022/09/24 08:38:20;;;;;;;31.30;24.90;;;;;;;14.25;88.33;100013.31;5082627;28;20498;-65
2022/09/24 08:40:53;;;;;;;29.80;24.97;;;;;;;14.56;87.93;100009.91;5091617;28;20483;-67
2022/09/24 08:43:28;;;;;;;28.03;23.40;;;;;;;14.25;88.82;100007.94;5099343;28;20442;-67
2022/09/24 08:48:53;;;;;;;30.93;25.47;;;;;;;14.28;89.02;100007.63;5016138;28;20457;-66
2022/09/24 08:51:21;;;;;;;30.03;25.20;;;;;;;14.34;89.51;100009.63;5071045;28;20487;-69
2022/09/24 08:53:55;;;;;;;29.57;23.67;;;;;;;14.35;89.76;100011.28;5085184;28;20470;-68
2022/09/24 08:56:26;;;;;;;27.90;24.93;;;;;;;14.36;89.83;100014.84;5075258;28;21184;-68
2022/09/24 08:58:57;;;;;;;35.10;24.97;;;;;;;14.61;88.70;100015.63;5081601;28;20476;-69
2022/09/24 09:01:32;;;;;;;27.00;24.10;;;;;;;14.50;89.41;100016.81;5079803;28;20478;-68
2022/09/24 09:04:03;;;;;;;31.83;24.20;;;;;;;14.74;88.82;100020.47;5079161;28;20455;-68
2022/09/24 09:06:52;;;;;;;31.10;25.67;;;;;;;14.55;88.56;100019.84;5079821;28;21024;-68
2022/09/24 09:09:22;;;;;;;29.30;25.13;;;;;;;14.60;89.32;100024.72;5080908;28;20550;-68
2022/09/24 09:11:52;;;;;;;30.53;25.10;;;;;;;14.58;88.98;100021.34;5078841;28;20498;-68
2022/09/24 09:14:21;;;;;;;27.23;23.20;;;;;;;14.64;89.58;100018.81;5079388;28;20462;-67
2022/09/24 09:16:51;;;;;;;27.70;24.63;;;;;;;14.74;88.50;100023.16;5074742;28;20501;-67
2022/09/24 09:19:23;;;;;;;28.00;24.47;;;;;;;14.72;89.11;100022.50;5079441;28;20478;-67
2022/09/24 09:21:56;;;;;;;29.17;24.53;;;;;;;14.98;88.08;100028.47;5079880;28;20504;-68
2022/09/24 09:24:28;;;;;;;30.33;26.40;;;;;;;14.83;87.31;100022.13;5078649;28;20547;-68
2022/09/24 09:26:56;;;;;;;29.77;25.53;;;;;;;14.93;88.55;100028.16;5072181;28;21083;-68
2022/09/24 09:29:24;;;;;;;27.63;24.73;;;;;;;14.94;88.10;100019.03;5087464;28;20478;-68
2022/09/24 09:32:00;;;;;;;28.37;25.37;;;;;;;15.02;88.65;100027.09;5097327;28;20502;-68
2022/09/24 09:34:39;;;;;;;27.97;24.57;;;;;;;15.19;87.48;100025.19;5095154;28;20448;-68
2022/09/24 09:37:14;;;;;;;29.57;25.40;;;;;;;15.17;88.01;100029.03;5097565;28;20496;-67
2022/09/24 09:39:46;;;;;;;30.57;24.30;;;;;;;15.32;87.58;100027.28;5086196;28;20444;-68
2022/09/24 09:42:27;;;;;;;29.60;24.30;;;;;;;15.36;86.66;100023.25;5084652;28;20494;-68
2022/09/24 09:44:54;;;;;;;29.23;24.00;;;;;;;15.39;87.28;100019.34;5082097;28;20494;-69
2022/09/24 09:47:25;;;;;;;25.07;22.10;;;;;;;15.27;85.77;100026.16;5088264;28;20486;-68
2022/09/24 09:49:55;;;;;;;29.10;21.97;;;;;;;15.24;85.55;100024.63;5086135;28;20485;-68
2022/09/24 09:52:25;;;;;;;25.73;21.53;;;;;;;15.30;86.29;100029.31;5081609;28;20472;-69
2022/09/24 09:54:52;;;;;;;25.37;20.77;;;;;;;15.19;85.28;100021.63;5083569;28;20456;-69
2022/09/24 09:57:23;;;;;;;26.17;21.93;;;;;;;15.35;85.82;100026.94;5082213;28;20517;-70
2022/09/24 09:59:51;;;;;;;24.17;20.03;;;;;;;15.08;85.93;100028.25;5087021;28;20479;-68
2022/09/24 10:02:23;;;;;;;24.60;21.17;;;;;;;15.27;85.31;100018.88;5085304;28;20482;-68
2022/09/24 10:04:55;;;;;;;24.33;20.10;;;;;;;15.34;86.06;100019.03;5096831;28;20485;-68
2022/09/24 10:07:21;;;;;;;33.90;24.70;;;;;;;15.20;84.13;100015.22;5090361;28;20483;-69
2022/09/24 10:09:58;;;;;;;29.13;22.90;;;;;;;15.22;84.76;100021.28;5079147;28;20432;-69
2022/09/24 10:12:25;;;;;;;26.73;23.00;;;;;;;15.27;84.32;100018.88;5078168;28;20516;-69
2022/09/24 10:15:00;;;;;;;28.00;22.30;;;;;;;15.24;83.85;100013.84;5079257;28;20461;-69
2022/09/24 10:17:34;;;;;;;29.40;22.50;;;;;;;15.48;83.85;100017.44;5077595;28;21010;-69
2022/09/24 10:20:08;;;;;;;29.20;22.70;;;;;;;15.34;84.45;100017.16;5079471;28;20430;-69
2022/09/24 10:22:35;;;;;;;24.37;21.23;;;;;;;15.62;85.36;100020.22;5079255;28;20489;-69
2022/09/24 10:25:02;;;;;;;31.37;23.97;;;;;;;15.81;84.52;100015.38;5078595;28;20477;-69
2022/09/24 10:27:31;;;;;;;30.80;25.60;;;;;;;15.65;84.84;100020.84;5078774;28;20542;-69
2022/09/24 10:32:47;;;;;;;27.43;23.03;;;;;;;15.69;83.16;100014.91;5078331;28;20557;-69
2022/09/24 10:35:26;;;;;;;29.00;25.83;;;;;;;15.88;82.48;100019.00;5077365;28;20833;-69
2022/09/24 10:37:53;;;;;;;25.83;23.17;;;;;;;15.63;81.55;100012.94;5078943;28;20456;-69
2022/09/24 10:40:24;;;;;;;27.23;21.50;;;;;;;15.96;81.43;100015.44;5077132;28;20850;-69
2022/09/24 10:43:02;;;;;;;25.80;23.07;;;;;;;16.14;81.33;100010.56;5078565;28;20473;-69
2022/09/24 10:46:02;;;;;;;30.07;23.83;;;;;;;16.24;81.67;100015.66;5076428;28;20508;-69
2022/09/24 10:48:35;;;;;;;28.27;24.20;;;;;;;16.71;81.44;100008.25;5065939;28;20441;-69
2022/09/24 10:51:10;;;;;;;26.30;22.77;;;;;;;16.66;77.29;100011.50;5077265;28;20483;-69
2022/09/24 10:53:46;;;;;;;27.07;24.07;;;;;;;16.49;78.51;100012.72;5076886;28;20502;-69
2022/09/24 10:56:19;;;;;;;28.03;24.37;;;;;;;16.49;79.87;100020.81;5076849;28;20490;-69
2022/09/24 10:59:16;;;;;;;29.97;23.97;;;;;;;16.50;79.00;100017.09;5078691;28;20504;-69
2022/09/24 11:01:49;;;;;;;29.30;24.60;;;;;;;17.03;78.41;100020.56;5076211;28;20505;-69
2022/09/24 11:04:23;;;;;;;29.93;24.77;;;;;;;17.21;77.76;100017.47;5078224;28;20437;-69
2022/09/24 11:07:14;;;;;;;27.43;24.10;;;;;;;16.88;75.93;100020.56;5063038;28;20482;-69
2022/09/24 11:09:45;;;;;;;28.17;23.77;;;;;;;17.08;76.52;100023.53;5076970;28;20454;-69
2022/09/24 11:12:16;;;;;;;29.07;25.33;;;;;;;17.40;76.83;100017.88;5076800;28;20473;-69
2022/09/24 11:14:57;;;;;;;28.93;24.60;;;;;;;17.11;74.90;100025.84;5077123;28;20513;-69
2022/09/24 11:17:33;;;;;;;27.70;24.33;;;;;;;17.18;75.25;100020.53;5076792;28;20489;-69
2022/09/24 11:20:12;;;;;;;28.40;23.40;;;;;;;17.43;74.47;100017.47;5077652;28;20501;-69
2022/09/24 11:22:50;;;;;;;29.10;22.77;;;;;;;17.54;72.22;100021.56;5058072;28;20482;-69
2022/09/24 11:25:28;;;;;;;26.73;22.13;;;;;;;18.03;70.62;100018.09;5055532;28;20455;-69
2022/09/24 11:28:08;;;;;;;26.97;22.77;;;;;;;18.24;71.94;100012.69;5078265;28;20439;-68
2022/09/24 11:30:46;;;;;;;25.03;21.57;;;;;;;18.21;70.85;100020.31;5077749;28;20478;-68
2022/09/24 11:33:28;;;;;;;23.30;20.17;;;;;;;18.23;68.39;100010.16;5058130;28;20463;-68
2022/09/24 11:36:16;;;;;;;25.50;21.93;;;;;;;18.00;69.96;100007.66;5059496;28;20973;-69